createdAt,value
2023-03-17T00:01:45.310Z,13.55
2023-03-17T00:04:13.123Z,13.95
2023-03-17T00:06:40.750Z,13.63
2023-03-17T00:09:14.864Z,11.60
2023-03-17T00:11:43.515Z,11.90
2023-03-17T00:14:11.014Z,12.05
2023-03-17T00:16:40.624Z,11.15
2023-03-17T00:19:10.835Z,12.25
2023-03-17T00:21:38.661Z,11.05
2023-03-17T00:24:06.273Z,11.48
2023-03-17T00:26:33.947Z,12.20
2023-03-17T00:29:01.366Z,11.95
2023-03-17T00:31:29.666Z,12.55
2023-03-17T00:33:57.278Z,12.50
2023-03-17T00:36:27.095Z,14.15
2023-03-17T00:38:54.376Z,13.38
2023-03-17T00:41:22.143Z,13.02
2023-03-17T00:43:49.816Z,10.88
2023-03-17T00:46:20.626Z,12.25
2023-03-17T00:48:48.163Z,12.40
2023-03-17T00:51:15.956Z,13.13
2023-03-17T00:53:43.426Z,11.93
2023-03-17T00:56:16.186Z,13.40
2023-03-17T00:58:44.468Z,11.07
2023-03-17T01:01:12.520Z,12.63
2023-03-17T01:03:40.529Z,11.52
2023-03-17T01:06:10.233Z,10.88
2023-03-17T01:08:38.271Z,12.55
2023-03-17T01:11:06.372Z,12.65
2023-03-17T01:13:33.715Z,10.90
2023-03-17T01:16:01.416Z,12.48
2023-03-17T01:18:28.851Z,11.77
2023-03-17T01:20:56.537Z,11.50
2023-03-17T01:23:24.100Z,11.52
2023-03-17T01:25:51.716Z,11.52
2023-03-17T01:28:19.500Z,10.55
2023-03-17T01:30:47.398Z,10.82
2023-03-17T01:33:15.076Z,11.38
2023-03-17T01:36:01.240Z,10.90
2023-03-17T01:38:46.929Z,12.65
2023-03-17T01:41:27.655Z,11.32
2023-03-17T01:43:55.082Z,12.05
2023-03-17T01:46:30.409Z,11.43
2023-03-17T01:49:03.473Z,11.43
2023-03-17T01:51:37.168Z,11.70
2023-03-17T01:54:06.629Z,12.05
2023-03-17T01:56:34.548Z,11.40
2023-03-17T01:59:03.551Z,11.50
2023-03-17T02:01:35.348Z,13.27
2023-03-17T02:04:02.779Z,10.60
2023-03-17T02:06:31.009Z,12.25
2023-03-17T02:08:59.484Z,11.52
2023-03-17T02:11:27.136Z,12.73
2023-03-17T02:13:54.505Z,11.63
2023-03-17T02:16:22.274Z,12.00
2023-03-17T02:18:49.787Z,11.85
2023-03-17T02:21:36.012Z,13.85
2023-03-17T02:24:05.554Z,12.30
2023-03-17T02:26:34.163Z,12.68
2023-03-17T02:29:01.645Z,10.35
2023-03-17T02:31:29.680Z,11.48
2023-03-17T02:33:57.057Z,13.18
2023-03-17T02:36:24.756Z,11.10
2023-03-17T02:38:52.250Z,11.07
2023-03-17T02:41:20.037Z,11.68
2023-03-17T02:43:47.440Z,10.95
2023-03-17T02:46:15.177Z,11.73
2023-03-17T02:48:42.716Z,10.07
2023-03-17T02:51:10.386Z,11.07
2023-03-17T02:53:37.915Z,10.07
2023-03-17T02:56:05.855Z,10.38
2023-03-17T02:58:33.244Z,10.93
2023-03-17T03:01:01.051Z,8.95
2023-03-17T03:03:28.459Z,10.45
2023-03-17T03:05:56.076Z,9.57
2023-03-17T03:08:23.477Z,9.38
2023-03-17T03:10:51.055Z,9.93
2023-03-17T03:13:18.481Z,11.40
2023-03-17T03:15:46.908Z,11.80
2023-03-17T03:18:14.343Z,11.15
2023-03-17T03:20:43.004Z,10.55
2023-03-17T03:23:10.706Z,10.00
2023-03-17T03:25:38.450Z,9.77
2023-03-17T03:28:06.958Z,10.35
2023-03-17T03:30:35.964Z,10.45
2023-03-17T03:33:03.571Z,8.25
2023-03-17T03:35:31.558Z,9.73
2023-03-17T03:37:59.294Z,8.23
2023-03-17T03:40:26.988Z,7.13
2023-03-17T03:42:54.345Z,7.72
2023-03-17T03:45:22.188Z,9.45
2023-03-17T03:47:49.637Z,8.65
2023-03-17T03:50:17.643Z,7.63
2023-03-17T03:52:45.006Z,7.85
2023-03-17T03:55:12.644Z,7.82
2023-03-17T03:57:53.013Z,7.93
2023-03-17T04:00:20.851Z,6.97
2023-03-17T04:05:52.166Z,6.30
2023-03-17T04:08:19.509Z,6.65
2023-03-17T04:10:47.199Z,8.25
2023-03-17T04:13:14.518Z,6.55
2023-03-17T04:15:42.361Z,6.07
2023-03-17T04:18:09.752Z,6.65
2023-03-17T04:20:37.420Z,7.18
2023-03-17T04:23:04.830Z,7.80
2023-03-17T04:25:32.468Z,7.05
2023-03-17T04:27:59.835Z,7.82
2023-03-17T04:30:27.630Z,6.55
2023-03-17T04:32:55.087Z,8.25
2023-03-17T04:35:22.841Z,8.60
2023-03-17T04:37:50.222Z,8.20
2023-03-17T04:40:18.520Z,8.82
2023-03-17T04:42:46.103Z,8.93
2023-03-17T04:45:14.266Z,9.00
2023-03-17T04:47:41.630Z,8.27
2023-03-17T04:50:09.800Z,9.00
2023-03-17T04:52:37.298Z,7.72
2023-03-17T04:55:05.749Z,8.93
2023-03-17T04:57:33.087Z,9.55
2023-03-17T05:00:00.859Z,9.55
2023-03-17T05:02:28.536Z,8.82
2023-03-17T05:04:56.276Z,9.80
2023-03-17T05:07:23.627Z,10.80
2023-03-17T05:09:51.235Z,8.60
2023-03-17T05:12:18.607Z,10.90
2023-03-17T05:14:46.282Z,11.52
2023-03-17T05:17:13.879Z,9.85
2023-03-17T05:19:41.601Z,11.32
2023-03-17T05:22:08.958Z,9.82
2023-03-17T05:24:36.702Z,10.13
2023-03-17T05:27:04.157Z,10.05
2023-03-17T05:29:31.808Z,11.80
2023-03-17T05:31:59.152Z,11.90
2023-03-17T05:34:26.856Z,11.30
2023-03-17T05:36:54.180Z,11.63
2023-03-17T05:39:21.902Z,10.68
2023-03-17T05:41:49.332Z,9.00
2023-03-17T05:44:16.946Z,11.93
2023-03-17T05:46:44.347Z,10.45
2023-03-17T05:49:12.001Z,10.73
2023-03-17T05:51:39.330Z,10.43
2023-03-17T05:54:07.055Z,10.52
2023-03-17T05:56:34.557Z,10.30
2023-03-17T05:59:02.583Z,10.88
2023-03-17T06:01:30.042Z,10.75
2023-03-17T06:03:57.804Z,10.48
2023-03-17T06:06:25.243Z,10.48
2023-03-17T06:08:52.896Z,12.65
2023-03-17T06:11:20.304Z,11.38
2023-03-17T06:13:48.118Z,12.35
2023-03-17T06:16:15.552Z,11.75
2023-03-17T06:18:43.212Z,12.82
2023-03-17T06:21:10.586Z,11.73
2023-03-17T06:23:38.113Z,13.70
2023-03-17T06:26:06.047Z,14.05
2023-03-17T06:28:33.396Z,11.73
2023-03-17T06:31:01.139Z,12.70
2023-03-17T06:33:28.643Z,13.00
2023-03-17T06:35:56.378Z,13.23
2023-03-17T06:38:23.768Z,11.98
2023-03-17T06:40:51.469Z,13.18
2023-03-17T06:43:18.948Z,12.23
2023-03-17T06:45:46.621Z,13.77
2023-03-17T06:48:14.856Z,12.60
2023-03-17T06:50:42.694Z,12.80
2023-03-17T06:53:10.130Z,11.20
2023-03-17T06:55:38.019Z,12.05
2023-03-17T06:58:05.407Z,12.80
2023-03-17T07:00:33.122Z,13.95
2023-03-17T07:06:05.457Z,13.00
2023-03-17T07:08:32.933Z,12.07
2023-03-17T07:11:00.656Z,13.60
2023-03-17T07:13:28.055Z,14.00
2023-03-17T07:15:56.598Z,13.25
2023-03-17T07:18:24.792Z,13.60
2023-03-17T07:20:52.452Z,10.63
2023-03-17T07:23:20.890Z,11.88
2023-03-17T07:25:48.801Z,11.30
2023-03-17T07:28:16.230Z,12.68
2023-03-17T07:30:44.040Z,11.57
2023-03-17T07:33:11.453Z,7.90
2023-03-17T07:35:39.240Z,9.20
2023-03-17T07:38:06.574Z,12.52
2023-03-17T07:40:35.428Z,10.45
2023-03-17T07:43:02.989Z,11.38
2023-03-17T07:45:31.022Z,11.20
2023-03-17T07:51:17.417Z,10.20
2023-03-17T07:53:45.174Z,11.23
2023-03-17T07:56:13.151Z,10.20
2023-03-17T07:58:40.686Z,9.35
2023-03-17T08:01:08.472Z,10.80
2023-03-17T08:03:36.026Z,10.02
2023-03-17T08:06:03.931Z,10.00
2023-03-17T08:08:31.722Z,9.60
2023-03-17T08:11:03.889Z,9.77
2023-03-17T08:13:31.926Z,10.68
2023-03-17T08:16:00.142Z,10.35
2023-03-17T08:18:27.876Z,9.77
2023-03-17T08:20:55.568Z,10.38
2023-03-17T08:23:23.043Z,8.77
2023-03-17T08:25:51.144Z,8.32
2023-03-17T08:28:18.583Z,8.50
2023-03-17T08:30:47.526Z,8.82
2023-03-17T08:33:16.513Z,7.93
2023-03-17T08:35:44.302Z,8.40
2023-03-17T08:38:11.838Z,8.68
2023-03-17T08:40:40.071Z,8.65
2023-03-17T08:43:07.458Z,7.55
2023-03-17T08:45:35.191Z,7.63
2023-03-17T08:48:03.212Z,7.07
2023-03-17T08:50:31.399Z,7.25
2023-03-17T08:52:58.940Z,6.65
2023-03-17T08:55:26.579Z,5.82
2023-03-17T08:57:54.106Z,6.85
2023-03-17T09:00:21.899Z,6.03
2023-03-17T09:02:49.362Z,6.32
2023-03-17T09:05:17.445Z,6.07
2023-03-17T09:07:44.974Z,5.63
2023-03-17T09:10:15.988Z,5.85
2023-03-17T09:12:43.365Z,5.55
2023-03-17T09:15:11.323Z,6.35
2023-03-17T09:17:38.779Z,6.05
2023-03-17T09:20:06.781Z,5.93
2023-03-17T09:22:34.191Z,6.07
2023-03-17T09:25:01.883Z,5.72
2023-03-17T09:27:32.129Z,5.90
2023-03-17T09:29:59.754Z,5.50
2023-03-17T09:32:27.119Z,4.43
2023-03-17T09:34:54.785Z,4.80
2023-03-17T09:37:22.108Z,5.20
2023-03-17T09:39:49.848Z,4.90
2023-03-17T09:42:27.944Z,4.82
2023-03-17T09:45:01.745Z,4.13
2023-03-17T09:47:29.102Z,4.93
2023-03-17T09:50:01.989Z,4.38
2023-03-17T09:52:30.090Z,4.10
2023-03-17T09:54:57.840Z,4.05
2023-03-17T09:57:39.484Z,3.65
2023-03-17T10:00:14.839Z,4.18
2023-03-17T10:02:42.592Z,4.70
2023-03-17T10:05:13.122Z,3.83
2023-03-17T10:07:40.630Z,4.32
2023-03-17T10:10:29.115Z,4.38
2023-03-17T10:13:15.324Z,4.07
2023-03-17T10:15:49.985Z,3.38
2023-03-17T10:18:18.462Z,3.35
2023-03-17T10:21:06.324Z,3.90
2023-03-17T10:23:34.974Z,4.25
2023-03-17T10:26:06.133Z,3.60
2023-03-17T10:28:34.676Z,3.65
2023-03-17T10:31:13.562Z,3.97
2023-03-17T10:33:43.349Z,3.95
2023-03-17T10:36:14.651Z,3.05
2023-03-17T10:38:50.236Z,3.28
2023-03-17T10:41:18.287Z,3.33
2023-03-17T10:43:47.155Z,2.75
2023-03-17T10:46:22.356Z,2.97
2023-03-17T10:48:51.676Z,3.25
2023-03-17T10:51:29.006Z,3.22
2023-03-17T10:53:59.345Z,2.92
2023-03-17T10:56:28.036Z,3.03
2023-03-17T10:58:55.902Z,3.33
2023-03-17T11:05:14.993Z,2.45
2023-03-17T11:07:42.802Z,2.90
2023-03-17T11:10:21.701Z,2.83
2023-03-17T11:12:54.730Z,2.80
2023-03-17T11:15:23.179Z,2.60
2023-03-17T11:17:53.576Z,2.55
2023-03-17T11:20:23.713Z,2.67
2023-03-17T11:22:56.131Z,2.30
2023-03-17T11:27:59.681Z,2.58
2023-03-17T11:30:34.141Z,2.60
2023-03-17T11:33:11.514Z,2.88
2023-03-17T11:35:43.989Z,3.13
2023-03-17T11:38:20.956Z,2.80
2023-03-17T11:41:01.642Z,2.80
2023-03-17T11:43:32.151Z,2.88
2023-03-17T11:46:07.093Z,2.65
2023-03-17T11:48:50.010Z,3.10
2023-03-17T11:51:20.147Z,3.28
2023-03-17T11:53:56.899Z,2.80
2023-03-17T11:56:42.857Z,2.50
2023-03-17T11:59:25.546Z,2.55
2023-03-17T12:02:13.130Z,2.40
2023-03-17T12:04:48.323Z,2.85
2023-03-17T12:07:36.241Z,2.33
2023-03-17T12:10:22.873Z,2.40
2023-03-17T12:12:52.791Z,2.35
2023-03-17T12:15:42.823Z,2.60
2023-03-17T12:18:36.296Z,2.15
2023-03-17T12:21:17.213Z,2.15
2023-03-17T12:23:47.321Z,2.53
2023-03-17T12:26:19.669Z,2.70
2023-03-17T12:28:49.759Z,2.80
2023-03-17T12:31:37.432Z,2.17
2023-03-17T12:34:10.500Z,2.10
2023-03-17T12:36:39.181Z,2.30
2023-03-17T12:39:11.236Z,2.42
2023-03-17T12:41:57.365Z,2.58
2023-03-17T12:44:33.525Z,2.50
2023-03-17T12:47:16.908Z,2.35
2023-03-17T12:49:53.573Z,2.45
2023-03-17T12:52:44.660Z,2.75
2023-03-17T12:55:13.960Z,2.45
2023-03-17T12:57:43.338Z,2.10
2023-03-17T13:00:23.706Z,2.47
2023-03-17T13:03:06.701Z,2.60
2023-03-17T13:05:34.758Z,2.30
2023-03-17T13:08:04.257Z,2.60
2023-03-17T13:10:37.639Z,2.58
2023-03-17T13:13:06.951Z,2.53
2023-03-17T13:15:34.319Z,2.13
2023-03-17T13:18:22.782Z,2.55
2023-03-17T13:21:15.913Z,2.58
2023-03-17T13:24:16.472Z,2.83
2023-03-17T13:26:53.686Z,2.50
2023-03-17T13:29:27.083Z,2.22
2023-03-17T13:32:13.291Z,3.08
2023-03-17T13:34:45.448Z,2.72
2023-03-17T13:37:33.590Z,2.45
2023-03-17T13:40:17.272Z,2.65
2023-03-17T13:42:52.971Z,2.67
2023-03-17T13:45:20.295Z,2.92
2023-03-17T13:47:49.733Z,3.30
2023-03-17T13:50:20.044Z,2.70
2023-03-17T13:53:07.702Z,2.95
2023-03-17T13:55:37.093Z,2.85
2023-03-17T13:58:10.497Z,3.03
2023-03-17T14:00:40.035Z,2.58
2023-03-17T14:03:10.531Z,2.08
2023-03-17T14:05:38.613Z,2.47
2023-03-17T14:08:25.283Z,2.90
2023-03-17T14:10:54.312Z,2.78
2023-03-17T14:13:26.761Z,2.45
2023-03-17T14:16:07.549Z,2.80
2023-03-17T14:18:36.388Z,2.80
2023-03-17T14:21:07.489Z,2.70
2023-03-17T14:23:37.165Z,2.42
2023-03-17T14:26:04.712Z,2.65
2023-03-17T14:28:33.310Z,3.72
2023-03-17T14:31:05.420Z,2.80
2023-03-17T14:33:36.507Z,2.17
2023-03-17T14:36:06.724Z,2.60
2023-03-17T14:38:36.446Z,2.42
2023-03-17T14:41:05.192Z,2.38
2023-03-17T14:43:33.874Z,2.90
2023-03-17T14:46:05.254Z,2.78
2023-03-17T14:48:37.560Z,2.60
2023-03-17T14:51:14.133Z,2.60
2023-03-17T14:53:43.608Z,2.95
2023-03-17T14:56:11.044Z,2.85
2023-03-17T14:58:43.082Z,3.22
2023-03-17T15:01:18.251Z,2.47
2023-03-17T15:03:56.956Z,2.58
2023-03-17T15:06:24.378Z,2.38
2023-03-17T15:08:52.526Z,3.38
2023-03-17T15:11:21.934Z,3.38
2023-03-17T15:13:50.541Z,3.35
2023-03-17T15:16:27.155Z,3.20
2023-03-17T15:19:02.952Z,3.53
2023-03-17T15:21:41.191Z,3.75
2023-03-17T15:24:20.396Z,2.72
2023-03-17T15:26:50.631Z,3.15
2023-03-17T15:29:18.384Z,3.58
2023-03-17T15:31:48.556Z,3.88
2023-03-17T15:34:16.458Z,3.60
2023-03-17T15:36:43.845Z,3.10
2023-03-17T15:39:11.478Z,3.53
2023-03-17T15:41:41.602Z,3.55
2023-03-17T15:44:09.268Z,3.17
2023-03-17T15:46:36.757Z,3.35
2023-03-17T15:49:09.177Z,2.78
2023-03-17T15:54:04.223Z,2.40
2023-03-17T15:56:33.247Z,2.83
2023-03-17T15:59:00.950Z,3.13
2023-03-17T16:01:28.435Z,3.50
2023-03-17T16:03:56.176Z,3.00
2023-03-17T16:06:24.023Z,3.10
2023-03-17T16:08:51.890Z,3.13
2023-03-17T16:11:20.532Z,3.75
2023-03-17T16:13:48.179Z,3.28
2023-03-17T16:16:20.299Z,2.90
2023-03-17T16:18:48.423Z,2.70
2023-03-17T16:21:16.105Z,3.30
2023-03-17T16:23:44.153Z,3.03
2023-03-17T16:26:15.886Z,2.80
2023-03-17T16:28:45.219Z,3.63
2023-03-17T16:31:35.798Z,3.42
2023-03-17T16:34:17.984Z,3.13
2023-03-17T16:36:48.663Z,2.93
2023-03-17T16:39:21.050Z,3.88
2023-03-17T16:41:49.371Z,2.88
2023-03-17T16:44:18.337Z,3.47
2023-03-17T16:46:45.820Z,2.95
2023-03-17T16:49:19.656Z,3.97
2023-03-17T16:51:49.320Z,3.40
2023-03-17T16:54:17.154Z,3.60
2023-03-17T16:56:44.802Z,4.00
2023-03-17T16:59:20.640Z,3.10
2023-03-17T17:01:51.182Z,3.45
2023-03-17T17:04:18.956Z,3.63
2023-03-17T17:06:46.338Z,4.20
2023-03-17T17:09:14.088Z,3.70
2023-03-17T17:11:41.488Z,3.88
2023-03-17T17:14:09.324Z,4.13
2023-03-17T17:16:37.644Z,3.95
2023-03-17T17:19:16.199Z,4.43
2023-03-17T17:21:44.110Z,4.50
2023-03-17T17:24:12.828Z,3.70
2023-03-17T17:26:40.604Z,4.13
2023-03-17T17:29:08.366Z,3.90
2023-03-17T17:31:35.889Z,4.32
2023-03-17T17:34:03.649Z,4.60
2023-03-17T17:36:31.243Z,6.72
2023-03-17T17:38:59.043Z,5.63
2023-03-17T17:41:31.368Z,7.47
2023-03-17T17:44:03.003Z,7.93
2023-03-17T17:46:30.430Z,6.90
2023-03-17T17:48:58.107Z,6.85
2023-03-17T17:51:25.474Z,7.45
2023-03-17T17:53:53.125Z,6.53
2023-03-17T17:56:20.676Z,6.93
2023-03-17T17:58:48.560Z,6.97
2023-03-17T18:01:15.994Z,7.63
2023-03-17T18:03:43.614Z,6.95
2023-03-17T18:06:13.944Z,7.72
2023-03-17T18:08:41.638Z,6.85
2023-03-17T18:11:09.059Z,7.22
2023-03-17T18:13:36.784Z,8.52
2023-03-17T18:16:04.395Z,8.40
2023-03-17T18:18:32.157Z,8.88
2023-03-17T18:20:59.563Z,8.93
2023-03-17T18:23:27.386Z,9.13
2023-03-17T18:26:00.831Z,9.00
2023-03-17T18:28:28.694Z,8.68
2023-03-17T18:30:57.708Z,8.95
2023-03-17T18:33:26.690Z,7.95
2023-03-17T18:35:54.230Z,8.90
2023-03-17T18:38:21.957Z,9.30
2023-03-17T18:40:49.449Z,9.27
2023-03-17T18:43:17.174Z,8.18
2023-03-17T18:45:44.686Z,8.38
2023-03-17T18:48:12.513Z,8.73
2023-03-17T18:50:39.917Z,8.07
2023-03-17T18:53:07.524Z,8.07
2023-03-17T18:55:38.596Z,8.30
2023-03-17T18:58:06.638Z,7.03
2023-03-17T19:00:36.680Z,7.68
2023-03-17T19:03:04.363Z,7.93
2023-03-17T19:05:34.656Z,8.10
2023-03-17T19:08:02.746Z,7.85
2023-03-17T19:10:30.562Z,8.73
2023-03-17T19:12:58.490Z,9.65
2023-03-17T19:15:26.207Z,10.38
2023-03-17T19:17:53.947Z,8.95
2023-03-17T19:20:21.390Z,8.40
2023-03-17T19:22:50.636Z,8.50
2023-03-17T19:25:45.246Z,8.07
2023-03-17T19:28:15.002Z,8.85
2023-03-17T19:30:42.545Z,8.27
2023-03-17T19:33:10.773Z,9.02
2023-03-17T19:35:38.675Z,8.25
2023-03-17T19:38:06.792Z,7.75
2023-03-17T19:40:35.161Z,7.95
2023-03-17T19:43:06.364Z,8.57
2023-03-17T19:45:33.853Z,7.40
2023-03-17T19:48:02.014Z,7.15
2023-03-17T19:50:30.613Z,7.13
2023-03-17T19:52:58.547Z,8.18
2023-03-17T19:55:25.893Z,7.93
2023-03-17T19:57:53.586Z,6.80
2023-03-17T20:00:21.408Z,7.82
2023-03-17T20:02:49.380Z,8.25
2023-03-17T20:05:16.813Z,8.30
2023-03-17T20:07:44.677Z,7.68
2023-03-17T20:10:12.375Z,8.70
2023-03-17T20:12:40.353Z,8.57
2023-03-17T20:15:08.401Z,8.38
2023-03-17T20:17:36.273Z,8.55
2023-03-17T20:20:03.855Z,9.10
2023-03-17T20:22:31.592Z,8.95
2023-03-17T20:24:58.951Z,9.63
2023-03-17T20:27:26.656Z,11.55
2023-03-17T20:29:54.140Z,12.02
2023-03-17T20:32:21.807Z,13.48
2023-03-17T20:34:49.141Z,12.20
2023-03-17T20:37:16.928Z,11.57
2023-03-17T20:39:44.263Z,9.70
2023-03-17T20:42:12.070Z,9.15
2023-03-17T20:44:39.536Z,8.77
2023-03-17T20:47:07.294Z,8.38
2023-03-17T20:49:34.852Z,7.18
2023-03-17T20:52:02.892Z,8.00
2023-03-17T20:54:30.886Z,8.65
2023-03-17T20:56:58.783Z,8.77
2023-03-17T20:59:29.402Z,8.18
2023-03-17T21:01:57.083Z,8.02
2023-03-17T21:04:24.573Z,8.13
2023-03-17T21:06:52.283Z,7.63
2023-03-17T21:09:19.781Z,7.88
2023-03-17T21:11:47.508Z,7.32
2023-03-17T21:14:15.025Z,7.47
2023-03-17T21:16:42.681Z,7.57
2023-03-17T21:19:12.975Z,8.57
2023-03-17T21:21:40.791Z,8.27
2023-03-17T21:24:24.755Z,9.00
2023-03-17T21:26:52.435Z,10.52
2023-03-17T21:29:19.838Z,10.05
2023-03-17T21:31:47.534Z,11.65
2023-03-17T21:34:14.934Z,12.05
2023-03-17T21:36:42.586Z,11.93
2023-03-17T21:39:10.168Z,11.55
2023-03-17T21:41:38.233Z,12.18
2023-03-17T21:44:05.892Z,16.15
2023-03-17T21:46:33.787Z,12.73
2023-03-17T21:49:01.171Z,12.48
2023-03-17T21:51:28.996Z,9.80
2023-03-17T21:53:56.727Z,10.90
2023-03-17T21:56:24.562Z,11.35
2023-03-17T21:58:51.932Z,10.43
2023-03-17T22:01:19.957Z,10.68
2023-03-17T22:07:29.679Z,9.75
2023-03-17T22:09:57.376Z,9.32
2023-03-17T22:12:24.725Z,10.07
2023-03-17T22:14:52.773Z,10.05
2023-03-17T22:17:20.101Z,9.32
2023-03-17T22:19:47.796Z,9.32
2023-03-17T22:22:15.314Z,9.95
2023-03-17T22:24:44.308Z,10.05
2023-03-17T22:27:11.991Z,9.15
2023-03-17T22:29:39.648Z,12.52
2023-03-17T22:32:07.334Z,12.88
2023-03-17T22:34:35.216Z,14.70
2023-03-17T22:37:03.142Z,10.93
2023-03-17T22:39:30.836Z,11.50
2023-03-17T22:41:58.169Z,12.70
2023-03-17T22:44:25.819Z,11.18
2023-03-17T22:46:55.666Z,9.75
2023-03-17T22:49:26.671Z,8.88
2023-03-17T22:51:54.073Z,7.55
2023-03-17T22:54:21.794Z,8.32
2023-03-17T22:56:49.180Z,8.93
2023-03-17T22:59:16.822Z,8.43
2023-03-17T23:01:44.202Z,8.45
2023-03-17T23:04:11.908Z,8.02
2023-03-17T23:06:39.454Z,8.23
2023-03-17T23:09:07.098Z,7.55
2023-03-17T23:11:34.524Z,8.43
2023-03-17T23:14:02.223Z,7.93
2023-03-17T23:16:29.555Z,7.78
2023-03-17T23:18:57.186Z,7.22
2023-03-17T23:21:35.281Z,7.25
2023-03-17T23:24:03.641Z,7.72
2023-03-17T23:26:31.053Z,7.15
2023-03-17T23:28:58.720Z,7.15
2023-03-17T23:31:26.628Z,6.88
2023-03-17T23:33:54.304Z,7.30
2023-03-17T23:36:21.708Z,9.02
2023-03-17T23:38:49.382Z,6.93
2023-03-17T23:41:16.829Z,7.60
2023-03-17T23:43:44.575Z,8.80
2023-03-17T23:46:12.556Z,8.43
2023-03-17T23:48:42.568Z,8.55
2023-03-17T23:51:11.088Z,8.43
2023-03-17T23:53:39.324Z,8.73
2023-03-17T23:56:07.101Z,9.43
2023-03-17T23:58:34.771Z,8.95
